Time;durP1;ratioP1;P1;durP2;ratioP2;P2;SDS_P1;SDS_P2;PMS_P1;PMS_P2;Temp;Humidity;BMP_temperature;BMP_pressure;BME280_temperature;BME280_humidity;BME280_pressure;Samples;Min_cycle;Max_cycle;Signal;HPM_P1;HPM_P2
2023/08/31 00:01:35;;;;;;;7.80;5.57;;;;;;;;;;5068326;28;20052;-65
2023/08/31 00:04:00;;;;;;;7.90;5.60;;;;;;;;;;5070188;28;20106;-63
2023/08/31 00:06:25;;;;;;;7.47;5.90;;;;;;;;;;5068457;28;20048;-62
2023/08/31 00:08:50;;;;;;;6.77;5.23;;;;;;;;;;5069716;28;20433;-63
2023/08/31 00:11:16;;;;;;;10.73;6.27;;;;;;;;;;5068728;28;20029;-62
2023/08/31 00:13:41;;;;;;;6.33;5.20;;;;;;;;;;5070142;28;20434;-62
2023/08/31 00:16:09;;;;;;;5.95;5.40;;;;;;;;;;5068165;28;20109;-62
2023/08/31 00:18:35;;;;;;;6.03;5.45;;;;;;;;;;5070012;28;20020;-63
2023/08/31 00:21:00;;;;;;;6.80;5.10;;;;;;;;;;5068554;28;20033;-63
2023/08/31 00:23:26;;;;;;;5.13;4.68;;;;;;;;;;5069485;28;20039;-63
2023/08/31 00:25:52;;;;;;;7.50;5.07;;;;;;;;;;5068121;28;20060;-63
2023/08/31 00:28:18;;;;;;;10.23;5.03;;;;;;;;;;5070024;28;20025;-64
2023/08/31 00:30:44;;;;;;;5.45;4.95;;;;;;;;;;5067824;28;20047;-64
2023/08/31 00:33:09;;;;;;;6.78;5.10;;;;;;;;;;5069736;28;20051;-63
2023/08/31 00:35:34;;;;;;;10.93;7.77;;;;;;;;;;5068173;28;20069;-63
2023/08/31 00:38:00;;;;;;;10.03;5.13;;;;;;;;;;5069283;28;20023;-63
2023/08/31 00:40:25;;;;;;;7.00;4.60;;;;;;;;;;5068540;28;20509;-63
2023/08/31 00:42:51;;;;;;;7.50;5.10;;;;;;;;;;5068456;28;20008;-63
2023/08/31 00:45:17;;;;;;;12.32;5.03;;;;;;;;;;5071539;28;20017;-63
2023/08/31 00:47:42;;;;;;;9.32;5.18;;;;;;;;;;5072023;28;20036;-63
2023/08/31 00:50:08;;;;;;;8.43;5.95;;;;;;;;;;5073375;28;20021;-63
2023/08/31 00:52:34;;;;;;;8.65;5.45;;;;;;;;;;5071295;28;20514;-63
2023/08/31 00:55:00;;;;;;;9.73;5.55;;;;;;;;;;5073438;28;20094;-63
2023/08/31 00:57:26;;;;;;;8.02;5.80;;;;;;;;;;5071553;28;20059;-63
2023/08/31 00:59:51;;;;;;;7.65;5.90;;;;;;;;;;5072946;28;20048;-62
2023/08/31 01:02:21;;;;;;;8.45;6.93;;;;;;;;;;5071961;28;20216;-63
2023/08/31 01:04:58;;;;;;;8.52;7.28;;;;;;;;;;5073215;28;20051;-64
2023/08/31 01:07:34;;;;;;;9.23;8.32;;;;;;;;;;5071268;28;20039;-64
2023/08/31 01:09:59;;;;;;;14.38;7.60;;;;;;;;;;5072975;28;20025;-64
2023/08/31 01:12:30;;;;;;;7.20;6.22;;;;;;;;;;5071425;28;20148;-64
2023/08/31 01:14:59;;;;;;;8.50;6.07;;;;;;;;;;5072858;28;20090;-64
2023/08/31 01:17:26;;;;;;;7.95;6.93;;;;;;;;;;5071383;28;20043;-64
2023/08/31 01:19:53;;;;;;;7.00;6.38;;;;;;;;;;5071209;28;20495;-64
2023/08/31 01:22:24;;;;;;;11.52;7.72;;;;;;;;;;5071029;28;20041;-64
2023/08/31 01:24:49;;;;;;;8.70;6.10;;;;;;;;;;5072336;28;20063;-64
2023/08/31 01:27:15;;;;;;;7.35;6.70;;;;;;;;;;5070018;28;20060;-64
2023/08/31 01:29:40;;;;;;;9.55;7.25;;;;;;;;;;5072259;28;20024;-64
2023/08/31 01:32:07;;;;;;;13.57;8.80;;;;;;;;;;5071135;28;20042;-63
2023/08/31 01:34:32;;;;;;;10.43;7.50;;;;;;;;;;5071940;28;20020;-64
2023/08/31 01:36:59;;;;;;;7.20;5.78;;;;;;;;;;5070855;28;20024;-64
2023/08/31 01:39:38;;;;;;;13.48;7.25;;;;;;;;;;5072134;28;20055;-63
2023/08/31 01:42:04;;;;;;;10.25;5.80;;;;;;;;;;5070808;28;20029;-63
2023/08/31 01:44:32;;;;;;;7.03;5.80;;;;;;;;;;5071951;28;20100;-64
2023/08/31 01:47:01;;;;;;;7.85;6.28;;;;;;;;;;5070721;28;20047;-63
2023/08/31 01:49:27;;;;;;;7.18;6.47;;;;;;;;;;5072401;28;20017;-63
2023/08/31 01:51:52;;;;;;;10.65;6.18;;;;;;;;;;5070487;28;20396;-63
2023/08/31 01:54:17;;;;;;;11.10;7.22;;;;;;;;;;5072510;28;20032;-63
2023/08/31 01:56:42;;;;;;;14.48;7.45;;;;;;;;;;5069812;28;20047;-62
2023/08/31 01:59:07;;;;;;;8.38;6.68;;;;;;;;;;5071669;28;20536;-63
2023/08/31 02:01:32;;;;;;;10.05;7.20;;;;;;;;;;5070001;28;20032;-62
2023/08/31 02:03:58;;;;;;;7.85;6.18;;;;;;;;;;5072145;28;20021;-63
2023/08/31 02:06:23;;;;;;;6.40;5.90;;;;;;;;;;5070111;28;20372;-62
2023/08/31 02:08:48;;;;;;;10.60;6.70;;;;;;;;;;5071530;28;20024;-63
2023/08/31 02:11:13;;;;;;;12.95;6.60;;;;;;;;;;5070423;28;20446;-63
2023/08/31 02:13:39;;;;;;;8.98;7.25;;;;;;;;;;5071048;28;20031;-63
2023/08/31 02:16:04;;;;;;;12.18;8.02;;;;;;;;;;5070077;28;20041;-63
2023/08/31 02:18:29;;;;;;;16.30;8.25;;;;;;;;;;5071667;28;20035;-64
2023/08/31 02:20:54;;;;;;;15.57;7.63;;;;;;;;;;5069911;28;20075;-62
2023/08/31 02:23:19;;;;;;;24.40;10.82;;;;;;;;;;5071686;28;20020;-62
2023/08/31 02:25:44;;;;;;;9.80;7.80;;;;;;;;;;5069858;28;20631;-63
2023/08/31 02:28:09;;;;;;;13.80;9.70;;;;;;;;;;5069845;28;20119;-62
2023/08/31 02:30:35;;;;;;;8.83;8.03;;;;;;;;;;5069678;28;20492;-62
2023/08/31 02:33:00;;;;;;;9.02;8.13;;;;;;;;;;5071504;28;20411;-62
2023/08/31 02:35:25;;;;;;;12.35;9.60;;;;;;;;;;5069336;28;20021;-60
2023/08/31 02:37:50;;;;;;;9.53;8.53;;;;;;;;;;5069657;28;20082;-60
2023/08/31 02:40:15;;;;;;;16.23;10.40;;;;;;;;;;5071770;28;20431;-63
2023/08/31 02:42:41;;;;;;;13.30;10.27;;;;;;;;;;5069647;28;20388;-63
2023/08/31 02:45:06;;;;;;;13.75;12.27;;;;;;;;;;5070722;28;20021;-63
2023/08/31 02:47:31;;;;;;;18.92;11.93;;;;;;;;;;5069266;28;20122;-63
2023/08/31 02:49:56;;;;;;;16.33;13.18;;;;;;;;;;5071241;28;20079;-64
2023/08/31 02:52:21;;;;;;;16.45;13.38;;;;;;;;;;5068984;28;20043;-63
2023/08/31 02:54:46;;;;;;;17.95;14.43;;;;;;;;;;5070969;28;20023;-63
2023/08/31 02:57:12;;;;;;;19.00;14.77;;;;;;;;;;5069626;28;20024;-63
2023/08/31 02:59:37;;;;;;;19.50;15.23;;;;;;;;;;5070449;28;20099;-63
2023/08/31 03:02:02;;;;;;;21.10;14.98;;;;;;;;;;5069397;28;20443;-63
2023/08/31 03:04:28;;;;;;;24.95;20.00;;;;;;;;;;5070900;28;20036;-63
2023/08/31 03:06:53;;;;;;;21.20;17.95;;;;;;;;;;5068882;28;20438;-63
2023/08/31 03:09:20;;;;;;;24.77;19.67;;;;;;;;;;5069803;28;20035;-63
2023/08/31 03:11:45;;;;;;;23.13;18.65;;;;;;;;;;5069005;28;20044;-63
2023/08/31 03:14:10;;;;;;;24.73;19.27;;;;;;;;;;5069123;28;20024;-63
2023/08/31 03:16:35;;;;;;;22.85;20.55;;;;;;;;;;5069038;28;20055;-62
2023/08/31 03:19:01;;;;;;;22.58;20.15;;;;;;;;;;5070874;28;20399;-61
2023/08/31 03:21:26;;;;;;;23.00;19.70;;;;;;;;;;5068713;28;20060;-61
2023/08/31 03:23:51;;;;;;;25.25;21.17;;;;;;;;;;5069332;28;20467;-61
2023/08/31 03:26:16;;;;;;;32.08;21.30;;;;;;;;;;5069093;28;20036;-62
2023/08/31 03:28:41;;;;;;;28.52;23.10;;;;;;;;;;5069819;28;20021;-62
2023/08/31 03:31:06;;;;;;;29.40;21.73;;;;;;;;;;5069138;28;20518;-61
2023/08/31 03:33:31;;;;;;;32.20;23.93;;;;;;;;;;5070097;28;20027;-61
2023/08/31 03:36:00;;;;;;;33.70;23.85;;;;;;;;;;5068656;28;20431;-62
2023/08/31 03:38:26;;;;;;;29.48;25.15;;;;;;;;;;5070037;28;20047;-63
2023/08/31 03:40:54;;;;;;;27.48;24.42;;;;;;;;;;5068934;28;20033;-63
2023/08/31 03:43:20;;;;;;;32.80;25.92;;;;;;;;;;5070162;28;20028;-63
2023/08/31 03:45:45;;;;;;;34.37;26.40;;;;;;;;;;5068626;28;20036;-63
2023/08/31 03:48:10;;;;;;;29.15;25.15;;;;;;;;;;5070351;28;20025;-63
2023/08/31 03:50:36;;;;;;;30.33;26.52;;;;;;;;;;5068202;28;20086;-62
2023/08/31 03:53:02;;;;;;;34.08;27.38;;;;;;;;;;5070081;28;20023;-62
2023/08/31 03:55:28;;;;;;;31.55;27.73;;;;;;;;;;5068510;28;20039;-60
2023/08/31 03:57:53;;;;;;;34.77;27.53;;;;;;;;;;5069876;28;20012;-64
2023/08/31 04:00:18;;;;;;;35.87;29.13;;;;;;;;;;5070276;28;20032;-64
2023/08/31 04:02:44;;;;;;;40.47;30.23;;;;;;;;;;5068005;28;20047;-64
2023/08/31 04:05:10;;;;;;;39.65;30.65;;;;;;;;;;5069608;28;20474;-64
2023/08/31 04:07:35;;;;;;;35.78;29.85;;;;;;;;;;5068564;28;20044;-64
2023/08/31 04:10:00;;;;;;;38.67;29.07;;;;;;;;;;5069690;28;20024;-64
2023/08/31 04:12:25;;;;;;;43.47;30.73;;;;;;;;;;5067935;28;20102;-64
2023/08/31 04:14:50;;;;;;;40.33;32.77;;;;;;;;;;5068164;28;20434;-62
2023/08/31 04:17:15;;;;;;;36.83;32.33;;;;;;;;;;5068140;28;20439;-62
2023/08/31 04:19:41;;;;;;;41.13;32.30;;;;;;;;;;5070489;28;20028;-63
2023/08/31 04:22:06;;;;;;;37.60;29.47;;;;;;;;;;5070294;28;20033;-62
2023/08/31 04:24:31;;;;;;;41.15;29.58;;;;;;;;;;5053738;28;20323;-62
2023/08/31 04:26:56;;;;;;;35.97;29.05;;;;;;;;;;5052232;28;20052;-62
2023/08/31 04:29:21;;;;;;;30.23;26.58;;;;;;;;;;5061740;28;20025;-63
2023/08/31 04:31:47;;;;;;;30.67;25.10;;;;;;;;;;5071918;28;20029;-63
2023/08/31 04:34:12;;;;;;;39.95;28.38;;;;;;;;;;5060046;28;20119;-63
2023/08/31 04:36:37;;;;;;;32.67;24.35;;;;;;;;;;5051059;28;20099;-63
2023/08/31 04:39:03;;;;;;;30.27;26.05;;;;;;;;;;5059896;28;20044;-66
2023/08/31 04:41:28;;;;;;;29.77;26.08;;;;;;;;;;5069608;28;20040;-64
2023/08/31 04:43:53;;;;;;;29.35;23.35;;;;;;;;;;5073765;28;20027;-64
2023/08/31 04:46:18;;;;;;;27.43;24.37;;;;;;;;;;5071115;28;20518;-62
2023/08/31 04:48:43;;;;;;;25.80;21.48;;;;;;;;;;5072842;28;20948;-63
2023/08/31 04:51:26;;;;;;;28.92;22.25;;;;;;;;;;5072134;28;20036;-62
2023/08/31 04:53:51;;;;;;;24.08;21.05;;;;;;;;;;5073390;28;20028;-60
2023/08/31 04:56:16;;;;;;;24.83;22.17;;;;;;;;;;5071551;28;20445;-60
2023/08/31 04:58:41;;;;;;;27.80;21.92;;;;;;;;;;5071449;28;20046;-61
2023/08/31 05:01:07;;;;;;;27.88;23.73;;;;;;;;;;5052035;28;20029;-59
2023/08/31 05:03:32;;;;;;;28.77;24.13;;;;;;;;;;5052824;28;20021;-60
2023/08/31 05:05:57;;;;;;;26.30;23.45;;;;;;;;;;5051618;28;20498;-59
2023/08/31 05:08:22;;;;;;;32.08;25.48;;;;;;;;;;5052929;28;20017;-60
2023/08/31 05:10:47;;;;;;;28.42;23.15;;;;;;;;;;5051784;28;20142;-59
2023/08/31 05:13:13;;;;;;;27.58;24.65;;;;;;;;;;5052663;28;20021;-60
2023/08/31 05:15:38;;;;;;;26.90;23.90;;;;;;;;;;5051413;28;20029;-59
2023/08/31 05:18:03;;;;;;;32.30;27.65;;;;;;;;;;5053324;28;20457;-60
2023/08/31 05:20:28;;;;;;;31.33;27.95;;;;;;;;;;5049569;28;20399;-59
2023/08/31 05:22:54;;;;;;;28.13;23.27;;;;;;;;;;5053000;28;20017;-59
2023/08/31 05:25:19;;;;;;;29.63;23.70;;;;;;;;;;5052690;28;20020;-60
2023/08/31 05:27:44;;;;;;;29.90;26.90;;;;;;;;;;5050446;28;20483;-59
2023/08/31 05:30:09;;;;;;;30.03;26.87;;;;;;;;;;5052860;28;20021;-59
2023/08/31 05:32:34;;;;;;;28.65;24.13;;;;;;;;;;5049803;28;20541;-60
2023/08/31 05:35:00;;;;;;;39.42;24.73;;;;;;;;;;5054159;28;20475;-59
2023/08/31 05:37:25;;;;;;;31.85;26.08;;;;;;;;;;5070634;28;20040;-60
2023/08/31 05:39:50;;;;;;;30.45;27.15;;;;;;;;;;5071431;28;20127;-59
2023/08/31 05:42:16;;;;;;;35.75;27.25;;;;;;;;;;5070655;28;20040;-59
2023/08/31 05:44:41;;;;;;;37.28;28.10;;;;;;;;;;5070881;28;20021;-60
2023/08/31 05:47:06;;;;;;;35.05;28.10;;;;;;;;;;5070599;28;20502;-59
2023/08/31 05:49:33;;;;;;;30.30;24.57;;;;;;;;;;5071799;28;20021;-60
2023/08/31 05:51:58;;;;;;;28.20;24.40;;;;;;;;;;5070785;28;20447;-59
2023/08/31 05:54:23;;;;;;;27.40;23.83;;;;;;;;;;5070486;28;20039;-59
2023/08/31 05:56:48;;;;;;;31.08;27.30;;;;;;;;;;5069632;28;20813;-60
2023/08/31 05:59:13;;;;;;;31.80;27.50;;;;;;;;;;5071535;28;20468;-59
2023/08/31 06:01:38;;;;;;;38.47;26.85;;;;;;;;;;5069537;28;20141;-59
2023/08/31 06:04:03;;;;;;;34.03;24.88;;;;;;;;;;5071729;28;20016;-59
2023/08/31 06:06:29;;;;;;;25.13;22.02;;;;;;;;;;5070240;28;20420;-59
2023/08/31 06:08:54;;;;;;;31.40;21.83;;;;;;;;;;5072058;28;20078;-60
2023/08/31 06:11:19;;;;;;;27.25;22.42;;;;;;;;;;5070245;28;20559;-60
2023/08/31 06:13:45;;;;;;;22.10;19.13;;;;;;;;;;5071703;28;20031;-60
2023/08/31 06:16:10;;;;;;;20.80;18.63;;;;;;;;;;5063505;28;20041;-60
2023/08/31 06:18:35;;;;;;;31.58;19.25;;;;;;;;;;5050033;28;20025;-60
2023/08/31 06:21:00;;;;;;;24.83;19.53;;;;;;;;;;5085895;28;20467;-60
2023/08/31 06:23:26;;;;;;;19.00;17.03;;;;;;;;;;5071456;28;20430;-60
2023/08/31 06:25:51;;;;;;;20.67;18.23;;;;;;;;;;5069945;28;20478;-61
2023/08/31 06:28:16;;;;;;;23.58;19.30;;;;;;;;;;5071797;28;20024;-60
2023/08/31 06:30:46;;;;;;;26.10;19.02;;;;;;;;;;5066344;28;20063;-60
2023/08/31 06:33:11;;;;;;;22.60;18.30;;;;;;;;;;5050837;28;20101;-60
2023/08/31 06:35:37;;;;;;;21.43;16.47;;;;;;;;;;5052541;28;20095;-59
2023/08/31 06:38:02;;;;;;;28.92;22.02;;;;;;;;;;5068905;28;20035;-59
2023/08/31 06:40:27;;;;;;;20.93;18.77;;;;;;;;;;5059984;28;20029;-60
2023/08/31 06:42:52;;;;;;;23.88;19.05;;;;;;;;;;5050988;28;20428;-60
2023/08/31 06:45:17;;;;;;;24.33;19.30;;;;;;;;;;5063845;28;20100;-58
2023/08/31 06:47:43;;;;;;;21.07;18.43;;;;;;;;;;5070542;28;20013;-59
2023/08/31 06:50:09;;;;;;;19.65;17.75;;;;;;;;;;5069927;28;20056;-60
2023/08/31 06:52:34;;;;;;;18.50;16.57;;;;;;;;;;5068877;28;20494;-59
2023/08/31 06:54:59;;;;;;;17.38;14.98;;;;;;;;;;5070576;28;20506;-59
2023/08/31 06:57:26;;;;;;;19.20;17.38;;;;;;;;;;5067126;28;20496;-59
2023/08/31 06:59:51;;;;;;;20.27;17.50;;;;;;;;;;5070609;28;20021;-61
2023/08/31 07:02:16;;;;;;;18.47;14.30;;;;;;;;;;5069104;28;20041;-60
2023/08/31 07:04:42;;;;;;;23.37;17.30;;;;;;;;;;5070656;28;20059;-60
2023/08/31 07:07:08;;;;;;;17.80;15.60;;;;;;;;;;5068990;28;20562;-59
2023/08/31 07:09:33;;;;;;;15.02;13.55;;;;;;;;;;5070360;28;20032;-60
2023/08/31 07:11:58;;;;;;;16.00;13.57;;;;;;;;;;5069104;28;20036;-60
2023/08/31 07:14:24;;;;;;;17.93;15.00;;;;;;;;;;5066722;28;20055;-59
2023/08/31 07:16:50;;;;;;;16.73;15.13;;;;;;;;;;5056110;28;20099;-60
2023/08/31 07:19:15;;;;;;;20.63;15.05;;;;;;;;;;5044647;28;20139;-60
2023/08/31 07:21:40;;;;;;;16.10;12.65;;;;;;;;;;5038652;28;20115;-59
2023/08/31 07:24:05;;;;;;;16.63;14.90;;;;;;;;;;5050520;28;20032;-59
2023/08/31 07:26:30;;;;;;;19.50;17.58;;;;;;;;;;5038627;28;20689;-59
2023/08/31 07:28:55;;;;;;;30.58;17.35;;;;;;;;;;5030551;28;20068;-59
2023/08/31 07:31:21;;;;;;;18.85;14.48;;;;;;;;;;5028805;28;20034;-59
2023/08/31 07:33:46;;;;;;;16.50;14.73;;;;;;;;;;5029994;28;20050;-59
2023/08/31 07:36:11;;;;;;;18.10;15.02;;;;;;;;;;5028883;28;20502;-59
2023/08/31 07:38:36;;;;;;;21.50;15.57;;;;;;;;;;5030066;28;20046;-59
2023/08/31 07:41:01;;;;;;;20.58;14.63;;;;;;;;;;5028829;28;21017;-59
2023/08/31 07:43:27;;;;;;;15.02;13.55;;;;;;;;;;5030120;28;20043;-59
2023/08/31 07:45:53;;;;;;;16.70;14.25;;;;;;;;;;5028748;28;20045;-59
2023/08/31 07:48:18;;;;;;;14.75;13.02;;;;;;;;;;5030128;28;20091;-59
2023/08/31 07:50:43;;;;;;;14.47;12.47;;;;;;;;;;5028555;28;20516;-59
2023/08/31 07:53:08;;;;;;;13.48;11.98;;;;;;;;;;5030312;28;20025;-59
2023/08/31 07:55:35;;;;;;;12.73;11.40;;;;;;;;;;5027742;28;20373;-59
2023/08/31 07:58:01;;;;;;;14.85;10.30;;;;;;;;;;5030033;28;20024;-60
2023/08/31 08:00:26;;;;;;;13.63;10.07;;;;;;;;;;5028897;28;20026;-59
2023/08/31 08:02:51;;;;;;;11.07;10.13;;;;;;;;;;5030016;28;20017;-59
2023/08/31 08:05:16;;;;;;;12.27;10.25;;;;;;;;;;5029945;28;20022;-60
2023/08/31 08:07:42;;;;;;;14.03;9.70;;;;;;;;;;5028516;28;20444;-59
2023/08/31 08:10:07;;;;;;;16.67;8.98;;;;;;;;;;5030010;28;20072;-59
2023/08/31 08:12:39;;;;;;;13.65;9.35;;;;;;;;;;5028097;28;20030;-59
2023/08/31 08:15:05;;;;;;;9.55;7.60;;;;;;;;;;5030193;28;20037;-59
2023/08/31 08:17:30;;;;;;;9.73;8.73;;;;;;;;;;5027936;28;20033;-59
2023/08/31 08:19:55;;;;;;;9.43;8.32;;;;;;;;;;5030120;28;20049;-59
2023/08/31 08:22:20;;;;;;;7.00;6.40;;;;;;;;;;5040415;28;20396;-60
2023/08/31 08:24:46;;;;;;;9.67;8.77;;;;;;;;;;5049159;28;20027;-60
2023/08/31 08:27:11;;;;;;;7.67;6.87;;;;;;;;;;5048223;28;20395;-60
2023/08/31 08:29:36;;;;;;;8.13;5.70;;;;;;;;;;5049446;28;20107;-60
2023/08/31 08:32:03;;;;;;;7.47;6.43;;;;;;;;;;5051121;28;20040;-60
2023/08/31 08:34:28;;;;;;;5.90;5.30;;;;;;;;;;5049362;28;20435;-60
2023/08/31 08:36:54;;;;;;;13.25;7.75;;;;;;;;;;5048319;28;20373;-59
2023/08/31 08:39:19;;;;;;;7.22;6.47;;;;;;;;;;5049098;28;20500;-61
2023/08/31 08:41:44;;;;;;;10.40;5.88;;;;;;;;;;5048047;28;20052;-59
2023/08/31 08:44:09;;;;;;;9.23;6.87;;;;;;;;;;5049688;28;20059;-60
2023/08/31 08:46:35;;;;;;;6.65;5.97;;;;;;;;;;5047233;28;20456;-59
2023/08/31 08:49:02;;;;;;;8.07;5.72;;;;;;;;;;5056909;28;20093;-60
2023/08/31 08:51:28;;;;;;;8.77;7.13;;;;;;;;;;5058085;28;20037;-60
2023/08/31 08:53:54;;;;;;;9.43;5.43;;;;;;;;;;5048975;28;20055;-60
2023/08/31 08:56:19;;;;;;;7.68;5.80;;;;;;;;;;5056496;28;20495;-60
2023/08/31 08:58:44;;;;;;;8.90;4.93;;;;;;;;;;5068841;28;20023;-60
2023/08/31 09:01:09;;;;;;;11.65;5.80;;;;;;;;;;5060997;28;20063;-60
2023/08/31 09:03:35;;;;;;;8.00;4.80;;;;;;;;;;5047869;28;20017;-60
2023/08/31 09:06:07;;;;;;;8.05;5.45;;;;;;;;;;5055331;28;20040;-60
2023/08/31 09:08:33;;;;;;;13.95;5.82;;;;;;;;;;5072707;28;20468;-60
2023/08/31 09:10:58;;;;;;;5.27;4.77;;;;;;;;;;5065917;28;20112;-59
2023/08/31 09:13:26;;;;;;;6.90;3.85;;;;;;;;;;5050349;28;20068;-59
2023/08/31 09:15:51;;;;;;;9.05;4.43;;;;;;;;;;5035288;28;20116;-59
2023/08/31 09:18:22;;;;;;;5.65;3.70;;;;;;;;;;5052837;28;20100;-59
2023/08/31 09:20:47;;;;;;;5.18;4.25;;;;;;;;;;5051596;28;20072;-60
2023/08/31 09:23:13;;;;;;;7.55;4.18;;;;;;;;;;5052277;28;20577;-60
2023/08/31 09:25:45;;;;;;;3.45;3.15;;;;;;;;;;5051310;28;20056;-60
2023/08/31 09:28:14;;;;;;;3.72;3.38;;;;;;;;;;5053066;28;20013;-60
2023/08/31 09:30:42;;;;;;;5.45;2.97;;;;;;;;;;5050854;28;20106;-60
2023/08/31 09:33:09;;;;;;;4.10;2.30;;;;;;;;;;5052656;28;20071;-60
2023/08/31 09:35:38;;;;;;;6.47;2.83;;;;;;;;;;5051179;28;20463;-60
2023/08/31 09:38:05;;;;;;;6.57;2.70;;;;;;;;;;5052071;28;20025;-60
2023/08/31 09:40:30;;;;;;;3.40;2.72;;;;;;;;;;5050629;28;20380;-60
2023/08/31 09:42:55;;;;;;;7.40;3.20;;;;;;;;;;5052531;28;20025;-59
2023/08/31 09:45:33;;;;;;;5.40;2.40;;;;;;;;;;5050472;28;20029;-59
2023/08/31 09:47:59;;;;;;;4.85;2.38;;;;;;;;;;5052538;28;20124;-60
2023/08/31 09:50:25;;;;;;;5.47;3.13;;;;;;;;;;5055200;28;20016;-60
2023/08/31 09:52:53;;;;;;;6.50;2.15;;;;;;;;;;5070558;28;20055;-60
2023/08/31 09:55:18;;;;;;;;;;;;;;;;;;5072098;28;20521;-56
2023/08/31 09:57:45;;;;;;;3.22;1.60;;;;;;;;;;5071475;28;20363;-60
2023/08/31 10:00:10;;;;;;;2.85;2.15;;;;;;;;;;5071680;28;20028;-60
2023/08/31 10:02:35;;;;;;;3.15;1.60;;;;;;;;;;5070465;28;20032;-60
2023/08/31 10:05:01;;;;;;;9.57;2.40;;;;;;;;;;5055386;28;20058;-60
2023/08/31 10:07:26;;;;;;;3.28;2.30;;;;;;;;;;5054100;28;20089;-60
2023/08/31 10:09:52;;;;;;;3.05;2.25;;;;;;;;;;5070776;28;20044;-60
2023/08/31 10:12:18;;;;;;;6.18;3.80;;;;;;;;;;5065944;28;20052;-60
2023/08/31 10:14:46;;;;;;;5.70;2.15;;;;;;;;;;5071128;28;20020;-60
2023/08/31 10:17:11;;;;;;;10.15;3.65;;;;;;;;;;5069679;28;20369;-60
2023/08/31 10:19:36;;;;;;;6.35;4.30;;;;;;;;;;5069482;28;20016;-60
2023/08/31 10:22:03;;;;;;;5.37;2.90;;;;;;;;;;5068445;28;20045;-60
2023/08/31 10:24:47;;;;;;;6.10;2.53;;;;;;;;;;5058677;28;20012;-60
2023/08/31 10:27:17;;;;;;;7.13;2.75;;;;;;;;;;5067089;28;20120;-60
2023/08/31 10:29:42;;;;;;;8.93;3.25;;;;;;;;;;5066245;28;20035;-60
2023/08/31 10:32:07;;;;;;;8.70;3.10;;;;;;;;;;5069598;28;20048;-60
2023/08/31 10:34:37;;;;;;;10.50;4.30;;;;;;;;;;5071274;28;20435;-60
2023/08/31 10:37:03;;;;;;;7.82;2.78;;;;;;;;;;5069521;28;20037;-59
2023/08/31 10:39:37;;;;;;;5.15;2.78;;;;;;;;;;5067705;28;20064;-60
2023/08/31 10:42:03;;;;;;;7.88;3.50;;;;;;;;;;5069555;28;20037;-60
2023/08/31 10:44:30;;;;;;;7.68;5.10;;;;;;;;;;5068386;28;20027;-60
2023/08/31 10:46:58;;;;;;;2.60;2.40;;;;;;;;;;5069597;28;20464;-60
2023/08/31 10:49:25;;;;;;;10.60;4.95;;;;;;;;;;5068539;28;20021;-60
2023/08/31 10:51:54;;;;;;;6.13;3.45;;;;;;;;;;5069421;28;20143;-60
2023/08/31 10:54:26;;;;;;;4.88;3.53;;;;;;;;;;5070927;28;20539;-60
2023/08/31 10:56:57;;;;;;;5.43;2.90;;;;;;;;;;5069506;28;20044;-60
2023/08/31 10:59:23;;;;;;;3.25;2.58;;;;;;;;;;5070329;28;20023;-60
2023/08/31 11:01:52;;;;;;;4.78;3.85;;;;;;;;;;5069496;28;20407;-60
2023/08/31 11:04:18;;;;;;;5.10;2.60;;;;;;;;;;5070993;28;20028;-60
2023/08/31 11:06:43;;;;;;;7.47;4.90;;;;;;;;;;5068818;28;20403;-60
2023/08/31 11:09:18;;;;;;;13.48;3.33;;;;;;;;;;5071034;28;20020;-60
2023/08/31 11:11:43;;;;;;;7.72;3.67;;;;;;;;;;5067850;28;20032;-60
2023/08/31 11:14:09;;;;;;;4.20;2.70;;;;;;;;;;5070228;28;20031;-60
2023/08/31 11:16:34;;;;;;;6.15;3.40;;;;;;;;;;5068962;28;20064;-60
2023/08/31 11:18:59;;;;;;;5.70;3.27;;;;;;;;;;5070630;28;20024;-61
2023/08/31 11:21:24;;;;;;;2.67;2.13;;;;;;;;;;5068631;28;20070;-63
2023/08/31 11:23:50;;;;;;;3.50;2.43;;;;;;;;;;5070369;28;20028;-61
2023/08/31 11:26:15;;;;;;;9.03;2.83;;;;;;;;;;5067603;28;20040;-60
2023/08/31 11:28:43;;;;;;;9.57;3.03;;;;;;;;;;5069497;28;20432;-60
2023/08/31 11:31:08;;;;;;;4.93;3.10;;;;;;;;;;5067376;28;20059;-60
2023/08/31 11:33:33;;;;;;;7.93;2.93;;;;;;;;;;5070120;28;20129;-60
2023/08/31 11:35:59;;;;;;;3.40;2.73;;;;;;;;;;5068608;28;20037;-60
2023/08/31 11:38:24;;;;;;;4.50;3.72;;;;;;;;;;5070096;28;20451;-60
2023/08/31 11:40:49;;;;;;;8.13;3.50;;;;;;;;;;5068714;28;20112;-59
2023/08/31 11:43:14;;;;;;;6.10;2.15;;;;;;;;;;5069924;28;20035;-60
2023/08/31 11:45:40;;;;;;;4.47;2.15;;;;;;;;;;5068526;28;20089;-60
2023/08/31 11:48:06;;;;;;;3.15;2.03;;;;;;;;;;5070323;28;20371;-61
2023/08/31 11:50:31;;;;;;;5.90;3.38;;;;;;;;;;5065071;28;20036;-60
2023/08/31 11:52:56;;;;;;;7.93;2.93;;;;;;;;;;5069486;28;20139;-61
2023/08/31 11:55:22;;;;;;;4.87;2.03;;;;;;;;;;5068470;28;20012;-59
2023/08/31 11:57:48;;;;;;;14.68;4.97;;;;;;;;;;5070300;28;20093;-59
2023/08/31 12:00:16;;;;;;;3.30;2.00;;;;;;;;;;5069642;28;20476;-60
2023/08/31 12:02:41;;;;;;;9.95;4.30;;;;;;;;;;5068479;28;20080;-59
2023/08/31 12:05:06;;;;;;;3.03;2.72;;;;;;;;;;5070060;28;20105;-59
2023/08/31 12:07:31;;;;;;;8.90;5.07;;;;;;;;;;5068179;28;20032;-62
2023/08/31 12:10:03;;;;;;;17.25;3.72;;;;;;;;;;5070068;28;20020;-60
2023/08/31 12:12:29;;;;;;;3.55;3.25;;;;;;;;;;5067878;28;20036;-60
2023/08/31 12:14:54;;;;;;;6.32;4.57;;;;;;;;;;5069483;28;20073;-60
2023/08/31 12:17:20;;;;;;;6.30;3.10;;;;;;;;;;5067745;28;20437;-60
2023/08/31 12:19:45;;;;;;;18.73;4.47;;;;;;;;;;5068281;28;20024;-61
2023/08/31 12:22:12;;;;;;;8.38;4.25;;;;;;;;;;5067972;28;20032;-60
2023/08/31 12:24:41;;;;;;;3.60;2.83;;;;;;;;;;5069637;28;20047;-60
2023/08/31 12:27:09;;;;;;;6.60;2.67;;;;;;;;;;5066690;28;20042;-61
2023/08/31 12:29:35;;;;;;;7.50;2.75;;;;;;;;;;5067877;28;20016;-62
2023/08/31 12:32:00;;;;;;;6.15;2.50;;;;;;;;;;5068184;28;20044;-61
2023/08/31 12:34:26;;;;;;;7.20;2.57;;;;;;;;;;5069706;28;20468;-61
2023/08/31 12:36:52;;;;;;;6.77;2.70;;;;;;;;;;5068144;28;20451;-61
2023/08/31 12:39:17;;;;;;;5.85;2.17;;;;;;;;;;5069624;28;20554;-61
2023/08/31 12:41:42;;;;;;;3.37;1.60;;;;;;;;;;5070577;28;20032;-61
2023/08/31 12:44:07;;;;;;;6.70;1.73;;;;;;;;;;5073543;28;20025;-61
2023/08/31 12:46:33;;;;;;;2.83;2.00;;;;;;;;;;5072003;28;21023;-61
2023/08/31 12:48:59;;;;;;;3.88;1.60;;;;;;;;;;5073745;28;20024;-61
2023/08/31 12:51:24;;;;;;;5.90;1.70;;;;;;;;;;5071072;28;20449;-61
2023/08/31 12:53:49;;;;;;;7.27;1.93;;;;;;;;;;5073507;28;20024;-61
2023/08/31 12:56:21;;;;;;;1.70;1.60;;;;;;;;;;5072079;28;20376;-61
2023/08/31 12:58:48;;;;;;;1.40;1.30;;;;;;;;;;5073143;28;20426;-61
2023/08/31 13:01:13;;;;;;;3.83;2.15;;;;;;;;;;5071893;28;20029;-61
2023/08/31 13:03:38;;;;;;;2.65;1.50;;;;;;;;;;5073092;28;20739;-61
2023/08/31 13:06:03;;;;;;;4.22;2.45;;;;;;;;;;5067271;28;20044;-61
2023/08/31 13:08:29;;;;;;;3.87;1.90;;;;;;;;;;5072592;28;20025;-61
2023/08/31 13:10:54;;;;;;;3.00;2.20;;;;;;;;;;5071400;28;20033;-61
2023/08/31 13:13:20;;;;;;;3.85;1.67;;;;;;;;;;5072834;28;20028;-61
2023/08/31 13:15:49;;;;;;;5.35;2.20;;;;;;;;;;5071663;28;20032;-61
2023/08/31 13:18:14;;;;;;;4.88;2.33;;;;;;;;;;5072565;28;20028;-61
2023/08/31 13:20:39;;;;;;;6.25;3.10;;;;;;;;;;5070956;28;20330;-61
2023/08/31 13:23:04;;;;;;;5.85;1.60;;;;;;;;;;5072859;28;20025;-62
2023/08/31 13:25:30;;;;;;;5.35;3.03;;;;;;;;;;5070899;28;20056;-61
2023/08/31 13:27:56;;;;;;;6.32;3.50;;;;;;;;;;5072591;28;20024;-61
2023/08/31 13:30:22;;;;;;;5.88;2.35;;;;;;;;;;5071091;28;20455;-60
2023/08/31 13:32:47;;;;;;;5.13;2.05;;;;;;;;;;5072738;28;20019;-60
2023/08/31 13:35:12;;;;;;;3.70;1.67;;;;;;;;;;5072151;28;20017;-60
2023/08/31 13:37:37;;;;;;;7.10;2.38;;;;;;;;;;5069839;28;20036;-60
2023/08/31 13:40:07;;;;;;;3.63;2.93;;;;;;;;;;5071931;28;20040;-60
2023/08/31 13:42:38;;;;;;;3.58;1.73;;;;;;;;;;5070643;28;20112;-60
2023/08/31 13:45:05;;;;;;;5.43;2.35;;;;;;;;;;5072676;28;20092;-62
2023/08/31 13:47:30;;;;;;;3.63;1.70;;;;;;;;;;5069370;28;20040;-60
2023/08/31 13:49:56;;;;;;;5.88;1.92;;;;;;;;;;5072277;28;20348;-60
2023/08/31 13:52:21;;;;;;;6.22;3.10;;;;;;;;;;5069869;28;20059;-60
2023/08/31 13:54:46;;;;;;;10.90;2.67;;;;;;;;;;5072433;28;20038;-59
2023/08/31 13:57:17;;;;;;;6.22;1.40;;;;;;;;;;5070417;28;20439;-60
2023/08/31 13:59:42;;;;;;;18.90;3.88;;;;;;;;;;5072406;28;20024;-60
2023/08/31 14:02:07;;;;;;;5.85;2.45;;;;;;;;;;5070754;28;20083;-60
2023/08/31 14:04:32;;;;;;;5.82;1.98;;;;;;;;;;5071963;28;20019;-60
2023/08/31 14:06:57;;;;;;;6.55;1.88;;;;;;;;;;5070423;28;20395;-60
2023/08/31 14:09:23;;;;;;;3.05;1.50;;;;;;;;;;5071885;28;20020;-60
2023/08/31 14:11:48;;;;;;;3.35;1.27;;;;;;;;;;5069574;28;20037;-61
2023/08/31 14:14:14;;;;;;;6.80;1.38;;;;;;;;;;5071413;28;20434;-61
2023/08/31 14:16:39;;;;;;;4.32;1.27;;;;;;;;;;5069885;28;20040;-60
2023/08/31 14:19:05;;;;;;;2.97;1.95;;;;;;;;;;5071743;28;20074;-60
2023/08/31 14:21:30;;;;;;;2.28;1.25;;;;;;;;;;5070150;28;20036;-60
2023/08/31 14:23:55;;;;;;;3.17;1.50;;;;;;;;;;5070387;28;20024;-60